Flight Track Log - Related Links

Times and Time Zones

All times are in EDT time to prevent confusion due to time zone crossing. See the UAL5942 flight status page for this flight to view local times or setup timezone preferences in your user account.

Time Position Orientation Groundspeed Altitude Reporting Facility
EDT Latitude Longitude Course Direction KTS MPH feet Rate Location/Type
Tue 07:54:22 PM 35.8967 -78.7767 15° North 170 196 1,200  Level Washington Center
Tue 07:55:23 PM 35.9497 -78.7403 29° Northeast 236 272 3,300 2,350 Climbing Washington Center
Tue 07:56:22 PM 36.0214 -78.7150 16° North 265 305 5,900 2,874 Climbing Washington Center
Tue 07:57:00 PM 36.1703 -78.6675 19° North  Level FlightAware
Tue 07:57:22 PM 36.0931 -78.6919 15° North 273 314 9,000  Level Washington Center
Tue 07:58:00 PM 36.2460 -78.6351 19° North  Level FlightAware
Tue 07:58:22 PM 36.1583 -78.6689 16° North 279 321 11,500  Level Washington Center
Tue 07:59:00 PM 36.3232 -78.6089 15° North  Level FlightAware
Tue 07:59:22 PM 36.2550 -78.6417 13° North 294 338 12,000  Level Washington Center
Tue 08:00:22 PM 36.3433 -78.6142 14° North 345 397 13,900 2,200 Climbing Washington Center
Tue 08:01:22 PM 36.4483 -78.5822 14° North 359 413 16,400 2,000 Climbing Washington Center
Tue 08:02:22 PM 36.5453 -78.5469 16° North 353 406 17,900 1,400 Climbing Washington Center
Tue 08:03:22 PM 36.6442 -78.5094 17° North 359 413 19,200 1,050 Climbing Washington Center
Tue 08:04:22 PM 36.7453 -78.4717 17° North 370 426 20,000 400 Climbing Washington Center
Tue 08:05:22 PM 36.8411 -78.3947 33° Northeast 377 434 20,000  Level Washington Center
Tue 08:06:22 PM 36.9389 -78.3178 32° Northeast 400 460 20,000  Level Washington Center
Tue 08:07:22 PM 37.0300 -78.2431 33° Northeast 406 467 20,000  Level Washington Center
Tue 08:08:22 PM 37.1131 -78.1731 34° Northeast 401 461 20,000  Level Washington Center
Tue 08:09:22 PM 37.2106 -78.0928 33° Northeast 393 452 20,000  Level Washington Center
Tue 08:10:22 PM 37.2997 -78.0200 33° Northeast 381 438 20,000  Level Washington Center
Tue 08:11:22 PM 37.3889 -77.9469 33° Northeast 381 438 20,000  Level Washington Center
Tue 08:12:22 PM 37.4800 -77.8714 33° Northeast 381 438 20,000 -550 Level Washington Center
Tue 08:13:22 PM 37.5731 -77.8006 31° Northeast 381 438 18,900 -1,400 Descending Washington Center
Tue 08:14:22 PM 37.6722 -77.7406 26° Northeast 381 438 17,200 -1,750 Descending Washington Center
Tue 08:15:22 PM 37.7711 -77.6883 23° Northeast 381 438 15,400 -1,500 Descending Washington Center
Tue 08:16:22 PM 37.8681 -77.6303 25° Northeast 381 438 14,200 -1,150 Descending Washington Center
Tue 08:17:22 PM 37.9631 -77.5725 26° Northeast 381 438 13,100 -1,000 Descending Washington Center
Tue 08:18:22 PM 38.0469 -77.5297 22° Northeast 376 433 12,200 -1,250 Descending Washington Center
Tue 08:19:22 PM 38.1397 -77.4742 25° Northeast 344 396 10,600 -1,100 Descending Washington Center
Tue 08:20:22 PM 38.2114 -77.4308 25° Northeast 303 349 10,000 -300 Descending Washington Center
Tue 08:21:22 PM 38.2861 -77.4461 351° North 265 305 10,000 -300 Level Washington Center
Tue 08:22:22 PM 38.3611 -77.4506 357° North 260 299 9,400 -800 Descending Washington Center
Tue 08:23:22 PM 38.4342 -77.4469 North 260 299 8,400 -950 Descending Washington Center
Tue 08:24:22 PM 38.5092 -77.4464 360° North 260 299 7,500 -1,100 Descending Washington Center
Tue 08:25:22 PM 38.5822 -77.4456 North 260 299 6,200 -1,350 Descending Washington Center
Tue 08:26:22 PM 38.6531 -77.4419 North 255 293 4,800 -1,419 Descending Washington Center
Tue 08:26:55 PM 38.7000 -77.4333 North 251 289 4,000 -1,172 Descending Potomac TRACON
Tue 08:27:49 PM 38.7500 -77.4333 360° North 232 267 3,100 -800 Descending Potomac TRACON
Tue 08:28:55 PM 38.8167 -77.4333 360° North 218 251 2,400 -762 Descending Potomac TRACON
Tue 08:29:55 PM 38.8667 -77.4333 360° North 165 190 1,500 -895 Descending Potomac TRACON
Tue 08:30:49 PM 38.9000 -77.4333 360° North 139 160 700 -889 Descending Potomac TRACON
Tue 08:32:00 PM 38.9474 -77.4599 North  Level Estimated

Login

Don't have an account? Register now (free) for customized features, flight alerts, and more!